createdAt,value
2018-09-12T00:02:16.951Z,7.17
2018-09-12T00:04:51.319Z,7.30
2018-09-12T00:07:25.688Z,8.57
2018-09-12T00:10:00.059Z,8.90
2018-09-12T00:12:34.425Z,8.83
2018-09-12T00:15:08.838Z,7.77
2018-09-12T00:17:43.541Z,8.13
2018-09-12T00:20:17.918Z,7.53
2018-09-12T00:22:52.269Z,6.93
2018-09-12T00:25:26.629Z,8.97
2018-09-12T00:28:01.106Z,6.93
2018-09-12T00:30:35.457Z,9.07
2018-09-12T00:33:09.800Z,8.07
2018-09-12T00:35:44.146Z,8.03
2018-09-12T00:38:18.542Z,7.10
2018-09-12T00:40:52.945Z,9.83
2018-09-12T00:43:27.321Z,10.40
2018-09-12T00:46:01.738Z,7.97
2018-09-12T00:48:36.132Z,6.73
2018-09-12T00:51:10.462Z,9.33
2018-09-12T00:53:44.813Z,9.40
2018-09-12T00:56:19.155Z,8.73
2018-09-12T00:58:54.020Z,8.97
2018-09-12T01:01:28.375Z,7.10
2018-09-12T01:04:02.741Z,7.93
2018-09-12T01:06:37.105Z,8.10
2018-09-12T01:09:11.565Z,7.33
2018-09-12T01:11:46.006Z,7.90
2018-09-12T01:14:21.141Z,8.03
2018-09-12T01:16:55.669Z,7.73
2018-09-12T01:19:30.630Z,8.43
2018-09-12T01:22:05.010Z,9.90
2018-09-12T01:24:39.449Z,7.40
2018-09-12T01:27:13.825Z,6.93
2018-09-12T01:29:48.201Z,8.90
2018-09-12T01:32:22.544Z,7.60
2018-09-12T01:34:56.927Z,7.93
2018-09-12T01:37:31.322Z,8.80
2018-09-12T01:40:05.708Z,7.73
2018-09-12T01:42:40.070Z,9.40
2018-09-12T01:45:16.074Z,7.83
2018-09-12T01:47:50.495Z,7.10
2018-09-12T01:50:24.869Z,6.60
2018-09-12T01:52:59.273Z,6.90
2018-09-12T01:55:33.626Z,7.93
2018-09-12T01:58:07.996Z,8.20
2018-09-12T02:00:42.870Z,7.13
2018-09-12T02:03:17.329Z,8.50
2018-09-12T02:05:51.699Z,7.17
2018-09-12T02:08:26.109Z,7.50
2018-09-12T02:11:00.450Z,7.07
2018-09-12T02:13:34.826Z,7.00
2018-09-12T02:16:09.231Z,6.93
2018-09-12T02:18:43.705Z,9.07
2018-09-12T02:21:18.147Z,10.07
2018-09-12T02:23:52.589Z,7.97
2018-09-12T02:26:27.015Z,7.43
2018-09-12T02:29:01.374Z,9.60
2018-09-12T02:31:35.733Z,8.90
2018-09-12T02:34:10.114Z,7.40
2018-09-12T02:36:44.504Z,7.70
2018-09-12T02:39:18.869Z,7.13
2018-09-12T02:41:53.239Z,8.10
2018-09-12T02:44:27.629Z,10.67
2018-09-12T02:47:01.999Z,9.97
2018-09-12T02:49:36.565Z,7.70
2018-09-12T02:52:10.966Z,9.60
2018-09-12T02:54:45.320Z,8.00
2018-09-12T02:57:19.765Z,7.17
2018-09-12T02:59:54.152Z,9.77
2018-09-12T03:02:28.501Z,8.53
2018-09-12T03:05:02.914Z,8.23
2018-09-12T03:07:37.278Z,8.07
2018-09-12T03:10:11.690Z,8.47
2018-09-12T03:12:46.106Z,10.20
2018-09-12T03:15:20.972Z,9.93
2018-09-12T03:17:55.494Z,10.83
2018-09-12T03:20:29.880Z,8.33
2018-09-12T03:23:04.239Z,7.87
2018-09-12T03:25:38.620Z,9.93
2018-09-12T03:28:13.051Z,8.50
2018-09-12T03:30:47.602Z,7.73
2018-09-12T03:33:22.197Z,8.63
2018-09-12T03:35:56.865Z,8.17
2018-09-12T03:38:31.268Z,8.27
2018-09-12T03:41:05.647Z,9.37
2018-09-12T03:43:39.969Z,9.60
2018-09-12T03:46:14.343Z,8.30
2018-09-12T03:48:48.980Z,11.03
2018-09-12T03:51:23.379Z,11.37
2018-09-12T03:53:57.772Z,9.27
2018-09-12T03:56:32.170Z,9.70
2018-09-12T03:59:06.694Z,11.43
2018-09-12T04:01:41.044Z,11.27
2018-09-12T04:04:15.401Z,12.60
2018-09-12T04:06:49.798Z,23.33
2018-09-12T04:09:24.257Z,14.40
2018-09-12T04:11:58.809Z,11.60
2018-09-12T04:14:33.256Z,11.97
2018-09-12T04:17:07.693Z,12.43
2018-09-12T04:19:42.124Z,11.23
2018-09-12T04:22:16.521Z,13.40
2018-09-12T04:24:50.924Z,13.63
2018-09-12T04:27:25.300Z,11.27
2018-09-12T04:29:59.708Z,13.00
2018-09-12T04:32:34.099Z,12.07
2018-09-12T04:35:09.941Z,12.70
2018-09-12T04:37:44.390Z,12.67
2018-09-12T04:40:20.161Z,13.27
2018-09-12T04:42:56.689Z,13.43
2018-09-12T04:45:33.123Z,16.43
2018-09-12T04:48:07.482Z,12.60
2018-09-12T04:50:41.854Z,15.10
2018-09-12T04:53:16.239Z,14.90
2018-09-12T04:55:50.590Z,13.60
2018-09-12T04:58:24.950Z,11.70
2018-09-12T05:00:59.351Z,11.60
2018-09-12T05:03:33.705Z,13.93
2018-09-12T05:06:07.991Z,12.70
2018-09-12T05:08:42.659Z,13.70
2018-09-12T05:11:17.033Z,12.07
2018-09-12T05:13:51.482Z,15.07
2018-09-12T05:16:26.533Z,13.47
2018-09-12T05:19:00.911Z,12.73
2018-09-12T05:21:35.797Z,13.23
2018-09-12T05:24:10.437Z,12.53
2018-09-12T05:26:44.765Z,13.07
2018-09-12T05:29:19.119Z,12.93
2018-09-12T05:31:53.468Z,14.73
2018-09-12T05:34:27.819Z,13.77
2018-09-12T05:37:02.152Z,14.20
2018-09-12T05:39:36.466Z,15.37
2018-09-12T05:42:10.837Z,15.37
2018-09-12T05:44:45.223Z,16.70
2018-09-12T05:47:19.587Z,16.00
2018-09-12T05:49:53.938Z,18.63
2018-09-12T05:52:28.306Z,16.70
2018-09-12T05:55:02.669Z,19.00
2018-09-12T05:57:37.091Z,15.03
2018-09-12T06:00:11.585Z,15.27
2018-09-12T06:02:45.894Z,16.27
2018-09-12T06:05:20.243Z,15.03
2018-09-12T06:07:54.705Z,16.70
2018-09-12T06:10:29.001Z,14.00
2018-09-12T06:13:03.990Z,16.23
2018-09-12T06:15:38.434Z,14.80
2018-09-12T06:18:12.761Z,15.70
2018-09-12T06:20:47.124Z,14.67
2018-09-12T06:23:21.785Z,14.63
2018-09-12T06:25:56.218Z,14.90
2018-09-12T06:28:30.719Z,13.07
2018-09-12T06:31:05.285Z,14.17
2018-09-12T06:33:39.693Z,13.30
2018-09-12T06:36:14.030Z,14.57
2018-09-12T06:38:48.474Z,15.40
2018-09-12T06:41:22.836Z,13.23
2018-09-12T06:43:57.270Z,15.83
2018-09-12T06:46:31.939Z,14.70
2018-09-12T06:49:06.833Z,12.23
2018-09-12T06:51:41.217Z,12.70
2018-09-12T06:54:15.644Z,11.07
2018-09-12T06:56:50.053Z,11.90
2018-09-12T06:59:24.435Z,10.90
2018-09-12T07:01:58.802Z,10.17
2018-09-12T07:04:33.134Z,9.93
2018-09-12T07:07:07.598Z,10.47
2018-09-12T07:09:42.353Z,11.97
2018-09-12T07:12:16.746Z,10.60
2018-09-12T07:14:51.195Z,9.47
2018-09-12T07:17:25.583Z,10.33
2018-09-12T07:20:00.028Z,10.73
2018-09-12T07:22:34.404Z,10.57
2018-09-12T07:25:08.902Z,10.00
2018-09-12T07:27:43.269Z,10.33
2018-09-12T07:30:17.645Z,10.00
2018-09-12T07:32:52.014Z,10.70
2018-09-12T07:35:27.002Z,9.50
2018-09-12T07:38:01.847Z,10.00
2018-09-12T07:40:36.195Z,10.13
2018-09-12T07:43:10.630Z,9.77
2018-09-12T07:45:45.002Z,9.90
2018-09-12T07:48:19.418Z,9.07
2018-09-12T07:50:53.724Z,9.07
2018-09-12T07:53:28.206Z,8.47
2018-09-12T07:56:02.636Z,8.37
2018-09-12T07:58:36.965Z,9.40
2018-09-12T08:01:11.364Z,9.50
2018-09-12T08:03:45.739Z,8.97
2018-09-12T08:06:20.148Z,9.20
2018-09-12T08:08:54.606Z,8.40
2018-09-12T08:11:28.976Z,8.57
2018-09-12T08:14:03.389Z,8.17
2018-09-12T08:16:37.749Z,8.57
2018-09-12T08:19:12.161Z,9.03
2018-09-12T08:21:46.522Z,9.47
2018-09-12T08:24:21.007Z,10.80
2018-09-12T08:26:55.397Z,8.60
2018-09-12T08:29:29.822Z,8.25
2018-09-12T08:32:05.210Z,11.65
2018-09-12T08:34:39.565Z,9.05
2018-09-12T08:37:13.956Z,9.48
2018-09-12T08:39:48.279Z,9.98
2018-09-12T08:42:22.719Z,9.75
2018-09-12T08:44:57.193Z,10.10
2018-09-12T08:47:33.486Z,8.78
2018-09-12T08:50:08.584Z,10.38
2018-09-12T08:52:42.963Z,9.78
2018-09-12T08:55:17.359Z,8.85
2018-09-12T08:57:51.734Z,9.43
2018-09-12T09:00:33.167Z,9.08
2018-09-12T09:03:07.579Z,9.98
2018-09-12T09:05:42.128Z,8.95
2018-09-12T09:08:16.482Z,9.08
2018-09-12T09:10:51.478Z,9.13
2018-09-12T09:13:25.825Z,8.13
2018-09-12T09:16:00.202Z,9.35
2018-09-12T09:18:34.582Z,8.20
2018-09-12T09:21:08.923Z,7.85
2018-09-12T09:23:43.397Z,9.45
2018-09-12T09:26:18.333Z,7.83
2018-09-12T09:28:54.555Z,7.70
2018-09-12T09:31:28.922Z,7.53
2018-09-12T09:34:03.291Z,8.63
2018-09-12T09:36:37.686Z,8.20
2018-09-12T09:39:12.750Z,7.35
2018-09-12T09:41:47.514Z,8.15
2018-09-12T09:44:21.955Z,6.87
2018-09-12T09:46:56.401Z,8.10
2018-09-12T09:49:31.214Z,6.75
2018-09-12T09:52:05.711Z,6.10
2018-09-12T09:54:40.649Z,6.42
2018-09-12T09:57:14.924Z,6.92
2018-09-12T09:59:49.386Z,6.65
2018-09-12T10:02:28.912Z,6.45
2018-09-12T10:05:07.464Z,6.37
2018-09-12T10:07:49.217Z,6.42
2018-09-12T10:10:23.590Z,6.20
2018-09-12T10:12:58.014Z,6.20
2018-09-12T10:15:32.331Z,7.17
2018-09-12T10:18:06.693Z,7.10
2018-09-12T10:20:41.091Z,6.62
2018-09-12T10:23:15.466Z,6.00
2018-09-12T10:25:49.757Z,6.60
2018-09-12T10:28:24.143Z,6.05
2018-09-12T10:30:59.575Z,6.00
2018-09-12T10:33:34.011Z,5.85
2018-09-12T10:36:08.349Z,6.28
2018-09-12T10:38:43.082Z,6.37
2018-09-12T10:41:18.398Z,5.78
2018-09-12T10:43:53.059Z,6.50
2018-09-12T10:46:27.441Z,5.83
2018-09-12T10:49:01.897Z,7.97
2018-09-12T10:51:36.262Z,6.60
2018-09-12T10:54:10.619Z,6.83
2018-09-12T10:56:44.970Z,6.53
2018-09-12T10:59:19.352Z,7.15
2018-09-12T11:01:53.718Z,6.22
2018-09-12T11:04:28.213Z,6.30
2018-09-12T11:07:02.493Z,8.73
2018-09-12T11:09:36.993Z,7.40
2018-09-12T11:12:13.138Z,9.28
2018-09-12T11:14:47.562Z,6.72
2018-09-12T11:17:21.918Z,7.03
2018-09-12T11:19:56.291Z,7.08
2018-09-12T11:22:30.744Z,7.10
2018-09-12T11:25:05.218Z,6.62
2018-09-12T11:27:40.590Z,9.48
2018-09-12T11:30:15.586Z,7.97
2018-09-12T11:32:49.978Z,7.00
2018-09-12T11:35:24.990Z,6.58
2018-09-12T11:37:59.363Z,6.35
2018-09-12T11:40:33.778Z,6.45
2018-09-12T11:43:08.146Z,7.22
2018-09-12T11:45:43.064Z,6.60
2018-09-12T11:48:17.453Z,6.42
2018-09-12T11:50:51.897Z,8.58
2018-09-12T11:53:26.322Z,9.50
2018-09-12T11:56:00.734Z,6.83
2018-09-12T11:58:35.128Z,6.42
2018-09-12T12:01:09.600Z,5.85
2018-09-12T12:03:44.014Z,5.47
2018-09-12T12:06:18.383Z,6.50
2018-09-12T12:08:52.753Z,6.03
2018-09-12T12:11:27.181Z,5.75
2018-09-12T12:14:01.531Z,7.80
2018-09-12T12:16:36.089Z,5.12
2018-09-12T12:19:10.515Z,7.47
2018-09-12T12:21:44.933Z,5.42
2018-09-12T12:24:19.411Z,4.87
2018-09-12T12:26:53.861Z,4.97
2018-09-12T12:29:28.325Z,4.70
2018-09-12T12:32:02.795Z,6.87
2018-09-12T12:34:37.293Z,4.30
2018-09-12T12:37:11.653Z,5.12
2018-09-12T12:39:46.000Z,5.35
2018-09-12T12:42:20.395Z,5.80
2018-09-12T12:44:54.827Z,4.95
2018-09-12T12:47:29.248Z,6.20
2018-09-12T12:50:03.667Z,4.85
2018-09-12T12:52:38.852Z,6.08
2018-09-12T12:55:13.266Z,6.33
2018-09-12T12:57:47.632Z,4.62
2018-09-12T13:00:22.070Z,4.95
2018-09-12T13:02:56.421Z,4.28
2018-09-12T13:05:34.813Z,5.95
2018-09-12T13:25:13.197Z,7.47
2018-09-12T13:27:47.654Z,6.22
2018-09-12T13:30:22.018Z,4.47
2018-09-12T13:32:56.419Z,4.42
2018-09-12T13:35:30.840Z,6.37
2018-09-12T13:38:05.313Z,5.97
2018-09-12T13:40:39.681Z,5.92
2018-09-12T13:43:14.021Z,4.75
2018-09-12T13:45:48.459Z,4.62
2018-09-12T13:48:27.318Z,6.95
2018-09-12T13:51:01.661Z,4.87
2018-09-12T13:53:36.029Z,6.28
2018-09-12T13:56:10.428Z,7.83
2018-09-12T13:58:44.782Z,5.00
2018-09-12T14:01:19.562Z,5.80
2018-09-12T14:03:55.450Z,6.42
2018-09-12T14:06:30.147Z,6.97
2018-09-12T14:09:06.478Z,5.17
2018-09-12T14:11:40.857Z,6.80
2018-09-12T14:14:15.282Z,5.55
2018-09-12T14:16:49.676Z,9.20
2018-09-12T14:19:24.115Z,5.92
2018-09-12T14:21:58.485Z,6.28
2018-09-12T14:24:32.883Z,4.53
2018-09-12T14:27:07.356Z,5.75
2018-09-12T14:29:41.772Z,5.62
2018-09-12T14:32:16.180Z,6.45
2018-09-12T14:34:50.553Z,6.97
2018-09-12T14:37:24.962Z,6.22
2018-09-12T14:39:59.388Z,4.80
2018-09-12T14:42:34.041Z,4.40
2018-09-12T14:45:10.785Z,6.47
2018-09-12T14:47:45.133Z,6.40
2018-09-12T14:50:19.532Z,6.67
2018-09-12T14:52:53.961Z,8.38
2018-09-12T14:55:28.394Z,5.62
2018-09-12T14:58:02.808Z,4.47
2018-09-12T15:00:37.213Z,4.60
2018-09-12T15:03:11.612Z,4.35
2018-09-12T15:05:46.041Z,3.98
2018-09-12T15:08:20.402Z,4.35
2018-09-12T15:10:54.831Z,5.05
2018-09-12T15:13:29.209Z,4.47
2018-09-12T15:16:03.554Z,4.62
2018-09-12T15:18:37.928Z,7.03
2018-09-12T15:21:12.901Z,4.28
2018-09-12T15:23:47.807Z,6.12
2018-09-12T15:26:22.510Z,10.32
2018-09-12T15:28:57.599Z,5.40
2018-09-12T15:31:32.046Z,4.50
2018-09-12T15:34:06.762Z,4.62
2018-09-12T15:36:41.111Z,6.10
2018-09-12T15:39:15.658Z,6.85
2018-09-12T15:41:51.054Z,5.35
2018-09-12T15:44:25.774Z,4.95
2018-09-12T15:47:00.148Z,5.15
2018-09-12T15:49:34.507Z,5.72
2018-09-12T15:52:09.290Z,10.00
2018-09-12T15:54:43.647Z,7.42
2018-09-12T15:57:20.452Z,4.97
2018-09-12T15:59:56.939Z,5.35
2018-09-12T16:02:35.363Z,8.05
2018-09-12T16:05:21.358Z,5.40
2018-09-12T16:07:59.943Z,5.65
2018-09-12T16:10:34.688Z,4.75
2018-09-12T16:13:10.825Z,4.97
2018-09-12T16:15:48.735Z,4.97
2018-09-12T16:18:25.846Z,7.05
2018-09-12T16:21:00.599Z,7.60
2018-09-12T16:23:40.173Z,6.20
2018-09-12T16:26:18.266Z,7.30
2018-09-12T16:28:53.090Z,6.22
2018-09-12T16:31:27.871Z,6.90
2018-09-12T16:34:02.418Z,5.12
2018-09-12T16:36:37.055Z,6.17
2018-09-12T16:39:13.868Z,6.62
2018-09-12T16:41:48.419Z,5.85
2018-09-12T16:44:23.046Z,7.95
2018-09-12T16:46:57.698Z,8.35
2018-09-12T16:49:32.704Z,6.30
2018-09-12T16:52:07.664Z,9.10
2018-09-12T16:54:42.304Z,7.17
2018-09-12T16:57:17.975Z,7.87
2018-09-12T16:59:54.821Z,8.20
2018-09-12T17:02:33.885Z,6.47
2018-09-12T17:05:13.436Z,7.20
2018-09-12T17:07:48.658Z,6.20
2018-09-12T17:10:23.324Z,7.90
2018-09-12T17:12:58.043Z,6.35
2018-09-12T17:15:32.837Z,6.17
2018-09-12T17:18:09.636Z,6.10
2018-09-12T17:20:44.389Z,7.37
2018-09-12T17:23:19.262Z,7.08
2018-09-12T17:25:54.104Z,6.97
2018-09-12T17:28:28.926Z,8.35
2018-09-12T17:31:03.526Z,6.45
2018-09-12T17:33:38.236Z,8.55
2018-09-12T17:36:13.809Z,8.30
2018-09-12T17:38:49.285Z,7.12
2018-09-12T17:41:24.020Z,7.83
2018-09-12T17:44:01.691Z,6.22
2018-09-12T17:46:36.485Z,7.70
2018-09-12T17:49:11.228Z,7.10
2018-09-12T17:51:46.765Z,5.25
2018-09-12T17:54:22.996Z,9.23
2018-09-12T17:56:57.792Z,7.20
2018-09-12T17:59:33.740Z,6.05
2018-09-12T18:02:09.221Z,7.87
2018-09-12T18:04:45.044Z,5.80
2018-09-12T18:07:31.406Z,11.40
2018-09-12T18:10:09.507Z,6.87
2018-09-12T18:12:45.324Z,8.40
2018-09-12T18:15:20.128Z,7.65
2018-09-12T18:17:56.212Z,7.07
2018-09-12T18:20:30.969Z,9.45
2018-09-12T18:23:05.807Z,7.05
2018-09-12T18:25:51.956Z,9.50
2018-09-12T18:28:32.398Z,7.40
2018-09-12T18:31:09.552Z,6.63
2018-09-12T18:33:45.477Z,10.53
2018-09-12T18:36:21.937Z,6.10
2018-09-12T18:38:56.324Z,8.33
2018-09-12T18:41:30.785Z,7.20
2018-09-12T18:44:05.312Z,8.93
2018-09-12T18:46:39.834Z,7.90
2018-09-12T18:49:14.379Z,6.53
2018-09-12T18:51:48.796Z,7.13
2018-09-12T18:54:23.258Z,5.90
2018-09-12T18:56:57.848Z,9.07
2018-09-12T18:59:37.832Z,6.60
2018-09-12T19:02:13.369Z,8.77
2018-09-12T19:04:47.972Z,7.03
2018-09-12T19:07:22.700Z,11.93
2018-09-12T19:09:57.271Z,7.60
2018-09-12T19:12:32.023Z,9.40
2018-09-12T19:15:06.807Z,12.93
2018-09-12T19:17:41.491Z,15.87
2018-09-12T19:20:16.026Z,13.97
2018-09-12T19:22:50.537Z,13.70
2018-09-12T19:25:25.499Z,15.17
2018-09-12T19:28:01.006Z,10.80
2018-09-12T19:30:35.451Z,10.90
2018-09-12T19:33:10.005Z,9.67
2018-09-12T19:35:44.871Z,12.00
2018-09-12T19:38:19.323Z,8.40
2018-09-12T19:40:53.898Z,8.10
2018-09-12T19:43:28.387Z,10.43
2018-09-12T19:46:02.886Z,11.83
2018-09-12T19:48:37.341Z,11.77
2018-09-12T19:51:17.937Z,9.83
2018-09-12T19:53:53.620Z,9.53
2018-09-12T19:56:29.294Z,9.80
2018-09-12T19:59:03.953Z,10.30
2018-09-12T20:01:38.425Z,12.13
2018-09-12T20:04:12.910Z,11.50
2018-09-12T20:06:47.400Z,12.33
2018-09-12T20:09:28.530Z,13.07
2018-09-12T20:12:02.927Z,14.57
2018-09-12T20:14:37.246Z,10.50
2018-09-12T20:17:11.614Z,13.03
2018-09-12T20:19:45.906Z,11.47
2018-09-12T20:22:20.617Z,11.03
2018-09-12T20:24:55.073Z,8.70
2018-09-12T20:27:29.459Z,9.73
2018-09-12T20:30:03.913Z,10.73
2018-09-12T20:32:38.226Z,9.97
2018-09-12T20:35:12.581Z,9.60
2018-09-12T20:37:46.931Z,8.60
2018-09-12T20:40:21.334Z,7.73
2018-09-12T20:42:55.656Z,9.37
2018-09-12T20:45:30.011Z,7.40
2018-09-12T20:48:04.566Z,10.07
2018-09-12T20:50:39.027Z,12.70
2018-09-12T20:53:13.267Z,13.27
2018-09-12T20:55:47.617Z,13.70
2018-09-12T20:58:21.958Z,10.93
2018-09-12T21:00:56.288Z,13.03
2018-09-12T21:03:30.678Z,11.13
2018-09-12T21:06:05.409Z,10.77
2018-09-12T21:08:39.763Z,8.60
2018-09-12T21:11:14.110Z,10.73
2018-09-12T21:13:48.474Z,10.60
2018-09-12T21:16:22.890Z,9.13
2018-09-12T21:18:57.266Z,11.40
2018-09-12T21:21:31.730Z,10.33
2018-09-12T21:24:06.159Z,9.57
2018-09-12T21:26:40.675Z,8.77
2018-09-12T21:29:15.026Z,7.80
2018-09-12T21:31:49.360Z,7.70
2018-09-12T21:34:23.733Z,10.07
2018-09-12T21:36:59.195Z,7.00
2018-09-12T21:39:33.596Z,7.10
2018-09-12T21:42:07.958Z,7.00
2018-09-12T21:44:42.311Z,10.10
2018-09-12T21:47:16.698Z,8.80
2018-09-12T21:49:51.099Z,11.17
2018-09-12T21:52:25.430Z,9.27
2018-09-12T21:54:59.794Z,9.33
2018-09-12T21:57:34.485Z,9.60
2018-09-12T22:00:09.026Z,8.67
2018-09-12T22:02:43.381Z,9.07
2018-09-12T22:05:17.703Z,12.77
2018-09-12T22:07:52.123Z,11.70
2018-09-12T22:10:26.420Z,8.33
2018-09-12T22:13:00.772Z,14.87
2018-09-12T22:15:35.114Z,8.70
2018-09-12T22:18:09.438Z,9.67
2018-09-12T22:20:43.763Z,8.37
2018-09-12T22:23:18.109Z,8.63
2018-09-12T22:25:52.438Z,8.27
2018-09-12T22:28:26.774Z,10.10
2018-09-12T22:31:01.100Z,11.07
2018-09-12T22:33:35.442Z,10.83
2018-09-12T22:36:09.893Z,9.43
2018-09-12T22:38:44.207Z,8.60
2018-09-12T22:41:18.559Z,9.37
2018-09-12T22:43:52.999Z,10.00
2018-09-12T22:46:27.315Z,8.60
2018-09-12T22:49:01.626Z,8.30
2018-09-12T22:51:35.974Z,7.90
2018-09-12T22:54:10.313Z,10.43
2018-09-12T22:56:44.738Z,8.63
2018-09-12T22:59:19.050Z,7.70
2018-09-12T23:01:53.415Z,9.43
2018-09-12T23:04:27.753Z,7.63
2018-09-12T23:07:02.131Z,8.37
2018-09-12T23:09:36.495Z,7.77
2018-09-12T23:12:10.798Z,9.87
2018-09-12T23:14:45.120Z,9.00
2018-09-12T23:17:19.431Z,9.13
2018-09-12T23:19:53.713Z,8.80
2018-09-12T23:22:28.065Z,8.50
2018-09-12T23:25:02.434Z,9.10
2018-09-12T23:27:36.757Z,8.83
2018-09-12T23:30:11.142Z,8.10
2018-09-12T23:32:45.625Z,8.63
2018-09-12T23:35:20.082Z,8.20
2018-09-12T23:37:54.438Z,8.37
2018-09-12T23:40:28.777Z,8.97
2018-09-12T23:43:03.109Z,9.77
2018-09-12T23:45:37.514Z,8.43
2018-09-12T23:48:11.840Z,8.63
2018-09-12T23:50:46.190Z,8.00
2018-09-12T23:53:20.589Z,10.80
2018-09-12T23:55:54.889Z,9.33
2018-09-12T23:58:29.221Z,9.47
